Time;durP1;ratioP1;P1;durP2;ratioP2;P2;SDS_P1;SDS_P2;PMS_P1;PMS_P2;Temp;Humidity;BMP_temperature;BMP_pressure;BME280_temperature;BME280_humidity;BME280_pressure;Samples;Min_cycle;Max_cycle;Signal;HPM_P1;HPM_P2
2023/10/06 00:00:26;;;;;;;11.23;5.60;;;;;;;;;;4830139;29;20387;-83
2023/10/06 00:03:12;;;;;;;12.48;5.82;;;;;;;;;;4830292;29;20454;-80
2023/10/06 00:05:58;;;;;;;10.75;6.20;;;;;;;;;;4824445;29;20485;-81
2023/10/06 00:08:51;;;;;;;9.88;6.15;;;;;;;;;;4830676;29;20061;-83
2023/10/06 00:11:40;;;;;;;16.83;5.63;;;;;;;;;;4815156;29;20042;-83
2023/10/06 00:14:43;;;;;;;10.15;6.03;;;;;;;;;;4816194;29;20406;-83
2023/10/06 00:17:33;;;;;;;11.10;6.20;;;;;;;;;;4815892;29;20057;-80
2023/10/06 00:20:31;;;;;;;11.02;6.32;;;;;;;;;;4830294;29;20064;-81
2023/10/06 00:23:23;;;;;;;13.18;6.05;;;;;;;;;;4830068;29;20474;-82
2023/10/06 00:26:16;;;;;;;11.05;5.88;;;;;;;;;;4829824;29;20057;-84
2023/10/06 00:29:10;;;;;;;11.85;6.07;;;;;;;;;;4830803;29;20053;-82
2023/10/06 00:32:21;;;;;;;13.15;6.20;;;;;;;;;;4830389;29;20053;-85
2023/10/06 00:35:29;;;;;;;15.15;6.25;;;;;;;;;;4830797;29;20498;-81
2023/10/06 00:38:16;;;;;;;18.20;5.95;;;;;;;;;;4822918;29;20049;-82
2023/10/06 00:41:06;;;;;;;13.38;5.80;;;;;;;;;;4816485;29;20050;-82
2023/10/06 00:43:52;;;;;;;12.02;5.68;;;;;;;;;;4815859;29;20049;-80
2023/10/06 00:46:38;;;;;;;13.05;5.43;;;;;;;;;;4823432;29;20049;-83
2023/10/06 00:49:24;;;;;;;11.25;5.35;;;;;;;;;;4822807;29;20518;-81
2023/10/06 00:52:12;;;;;;;17.98;5.50;;;;;;;;;;4814970;29;20490;-81
2023/10/06 00:54:58;;;;;;;13.52;5.13;;;;;;;;;;4823127;29;20042;-82
2023/10/06 00:58:04;;;;;;;8.50;4.57;;;;;;;;;;4823513;29;20045;-81
2023/10/06 01:00:52;;;;;;;10.23;5.05;;;;;;;;;;4829705;29;20050;-80
2023/10/06 01:03:41;;;;;;;9.85;4.90;;;;;;;;;;4818800;29;20057;-83
2023/10/06 01:06:33;;;;;;;9.18;5.22;;;;;;;;;;4819584;29;20049;-82
2023/10/06 01:09:22;;;;;;;12.25;5.30;;;;;;;;;;4833958;29;20393;-82
2023/10/06 01:12:13;;;;;;;13.05;5.28;;;;;;;;;;4819130;29;20050;-81
2023/10/06 01:15:20;;;;;;;9.07;5.10;;;;;;;;;;4827052;29;20054;-83
2023/10/06 01:18:05;;;;;;;9.55;4.35;;;;;;;;;;4832974;29;20050;-83
2023/10/06 01:20:50;;;;;;;9.35;4.93;;;;;;;;;;4826904;29;20042;-81
2023/10/06 01:23:38;;;;;;;10.15;5.25;;;;;;;;;;4826395;29;20050;-81
2023/10/06 01:26:24;;;;;;;22.40;8.50;;;;;;;;;;4828970;29;20057;-82
2023/10/06 01:29:11;;;;;;;14.45;7.40;;;;;;;;;;4829950;29;20405;-83
2023/10/06 01:31:58;;;;;;;14.23;5.97;;;;;;;;;;4827519;29;20466;-82
2023/10/06 01:34:44;;;;;;;10.05;5.57;;;;;;;;;;4833776;29;20402;-82
2023/10/06 01:37:31;;;;;;;8.98;5.18;;;;;;;;;;4827487;29;20045;-81
2023/10/06 01:43:12;;;;;;;9.65;5.63;;;;;;;;;;4833365;29;20053;-81
2023/10/06 01:45:59;;;;;;;12.38;5.85;;;;;;;;;;4826386;29;20057;-82
2023/10/06 01:48:44;;;;;;;18.80;11.20;;;;;;;;;;4818617;29;20049;-83
2023/10/06 01:51:38;;;;;;;13.65;6.53;;;;;;;;;;4824930;29;20034;-83
2023/10/06 01:54:27;;;;;;;10.80;6.35;;;;;;;;;;4817656;29;20378;-81
2023/10/06 01:57:15;;;;;;;15.57;8.75;;;;;;;;;;4826060;29;20057;-80
2023/10/06 02:00:01;;;;;;;14.50;6.07;;;;;;;;;;4833063;29;20049;-82
2023/10/06 02:02:57;;;;;;;14.20;5.75;;;;;;;;;;4826001;29;20449;-85
2023/10/06 02:05:43;;;;;;;15.25;5.65;;;;;;;;;;4827008;29;20414;-80
2023/10/06 02:08:30;;;;;;;14.52;6.15;;;;;;;;;;4831815;29;20046;-81
2023/10/06 02:11:17;;;;;;;13.15;6.32;;;;;;;;;;4819886;29;20049;-83
2023/10/06 02:14:04;;;;;;;13.15;6.68;;;;;;;;;;4821514;29;20049;-82
2023/10/06 02:16:54;;;;;;;12.55;6.40;;;;;;;;;;4822787;29;20061;-79
2023/10/06 02:19:41;;;;;;;14.20;6.40;;;;;;;;;;4822996;29;20050;-81
2023/10/06 02:22:27;;;;;;;13.85;7.10;;;;;;;;;;4822825;29;20057;-82
2023/10/06 02:25:13;;;;;;;10.40;6.07;;;;;;;;;;4817957;29;20500;-83
2023/10/06 02:28:01;;;;;;;11.95;5.97;;;;;;;;;;4830547;29;20041;-80
2023/10/06 02:30:51;;;;;;;10.68;5.82;;;;;;;;;;4836599;29;20045;-83
2023/10/06 02:33:39;;;;;;;14.75;6.38;;;;;;;;;;4837095;29;20053;-78
2023/10/06 02:36:24;;;;;;;12.07;5.95;;;;;;;;;;4836899;29;20383;-79
2023/10/06 02:39:15;;;;;;;10.25;6.35;;;;;;;;;;4822463;29;20454;-80
2023/10/06 02:42:07;;;;;;;14.93;5.90;;;;;;;;;;4830889;29;20058;-83
2023/10/06 02:44:53;;;;;;;11.70;5.82;;;;;;;;;;4830467;29;20042;-84
2023/10/06 02:47:40;;;;;;;10.82;5.68;;;;;;;;;;4817067;29;20410;-83
2023/10/06 02:50:25;;;;;;;13.00;6.10;;;;;;;;;;4830272;29;20462;-80
2023/10/06 02:53:20;;;;;;;11.80;6.13;;;;;;;;;;4822788;29;20497;-80
2023/10/06 02:56:09;;;;;;;10.43;6.00;;;;;;;;;;4829708;29;20042;-81
2023/10/06 02:58:59;;;;;;;12.35;6.20;;;;;;;;;;4822246;29;20041;-79
2023/10/06 03:01:51;;;;;;;13.75;6.20;;;;;;;;;;4835075;29;20466;-83
2023/10/06 03:04:36;;;;;;;12.65;5.93;;;;;;;;;;4830380;29;20053;-80
2023/10/06 03:07:22;;;;;;;14.02;6.47;;;;;;;;;;4821844;29;20406;-80
2023/10/06 03:10:11;;;;;;;18.13;6.60;;;;;;;;;;4829691;29;20393;-81
2023/10/06 03:12:57;;;;;;;9.35;5.70;;;;;;;;;;4830370;29;20467;-82
2023/10/06 03:15:46;;;;;;;12.15;6.05;;;;;;;;;;4823934;29;20045;-83
2023/10/06 03:18:33;;;;;;;9.23;5.63;;;;;;;;;;4823090;29;20053;-82
2023/10/06 03:21:18;;;;;;;11.43;5.75;;;;;;;;;;4830812;29;20046;-82
2023/10/06 03:24:06;;;;;;;9.43;6.18;;;;;;;;;;4830956;29;20050;-82
2023/10/06 03:26:51;;;;;;;12.77;5.75;;;;;;;;;;4823914;29;20402;-83
2023/10/06 03:29:51;;;;;;;12.02;6.13;;;;;;;;;;4823059;29;20410;-80
2023/10/06 03:32:40;;;;;;;12.00;6.57;;;;;;;;;;4822617;29;20203;-82
2023/10/06 03:35:36;;;;;;;11.35;5.93;;;;;;;;;;4821625;29;20045;-82
2023/10/06 03:41:44;;;;;;;18.55;7.78;;;;;;;;;;4821469;29;20455;-84
2023/10/06 03:44:26;;;;;;;16.98;6.95;;;;;;;;;;4835953;29;20050;-82
2023/10/06 03:47:14;;;;;;;10.80;6.20;;;;;;;;;;4821325;29;20057;-80
2023/10/06 03:50:01;;;;;;;12.88;6.35;;;;;;;;;;4821078;29;20482;-80
2023/10/06 03:52:47;;;;;;;14.40;6.75;;;;;;;;;;4835042;29;20045;-83
2023/10/06 03:55:47;;;;;;;14.00;6.53;;;;;;;;;;4829402;29;20049;-82
2023/10/06 03:58:33;;;;;;;10.18;5.75;;;;;;;;;;4828171;29;20050;-81
2023/10/06 04:01:26;;;;;;;11.90;6.10;;;;;;;;;;4834453;29;20053;-80
2023/10/06 04:04:14;;;;;;;16.45;6.43;;;;;;;;;;4821727;29;20493;-83
2023/10/06 04:07:00;;;;;;;15.63;6.72;;;;;;;;;;4814839;29;20050;-80
2023/10/06 04:09:49;;;;;;;12.25;6.57;;;;;;;;;;4829278;29;20045;-80
2023/10/06 04:12:35;;;;;;;14.48;6.40;;;;;;;;;;4821686;29;20699;-80
2023/10/06 04:15:20;;;;;;;15.90;6.65;;;;;;;;;;4828922;29;20045;-84
2023/10/06 04:18:09;;;;;;;12.45;6.55;;;;;;;;;;4835032;29;20041;-80
2023/10/06 04:20:55;;;;;;;16.50;6.30;;;;;;;;;;4834775;29;20057;-83
2023/10/06 04:23:43;;;;;;;14.50;6.28;;;;;;;;;;4821112;29;20045;-82
2023/10/06 04:26:28;;;;;;;12.65;6.32;;;;;;;;;;4828645;29;20414;-81
2023/10/06 04:29:14;;;;;;;16.52;6.40;;;;;;;;;;4828210;29;20053;-81
2023/10/06 04:32:00;;;;;;;10.82;5.85;;;;;;;;;;4834799;29;20463;-84
2023/10/06 04:34:46;;;;;;;13.05;6.00;;;;;;;;;;4819775;29;20426;-82
2023/10/06 04:37:31;;;;;;;14.40;6.10;;;;;;;;;;4832005;29;20050;-81
2023/10/06 04:40:21;;;;;;;14.85;6.38;;;;;;;;;;4836393;29;20058;-80
2023/10/06 04:43:07;;;;;;;13.68;7.10;;;;;;;;;;4830499;29;20041;-82
2023/10/06 04:45:55;;;;;;;11.55;6.43;;;;;;;;;;4838809;29;20054;-83
2023/10/06 04:48:40;;;;;;;15.02;7.07;;;;;;;;;;4832378;29;20049;-81
2023/10/06 04:51:27;;;;;;;15.77;6.90;;;;;;;;;;4831013;29;20053;-81
2023/10/06 04:54:13;;;;;;;18.35;7.28;;;;;;;;;;4838180;29;20426;-85
2023/10/06 04:56:59;;;;;;;13.55;7.80;;;;;;;;;;4831047;29;20050;-83
2023/10/06 04:59:45;;;;;;;18.42;7.05;;;;;;;;;;4834407;29;20406;-80
2023/10/06 05:02:34;;;;;;;20.92;8.02;;;;;;;;;;4819783;29;20061;-82
2023/10/06 05:05:22;;;;;;;16.00;7.68;;;;;;;;;;4819242;29;20049;-83
2023/10/06 05:08:09;;;;;;;14.75;8.13;;;;;;;;;;4834120;29;20057;-82
2023/10/06 05:10:55;;;;;;;18.85;8.18;;;;;;;;;;4820242;29;20045;-82
2023/10/06 05:13:40;;;;;;;19.77;7.85;;;;;;;;;;4820108;29;20053;-80
2023/10/06 05:16:27;;;;;;;14.82;7.22;;;;;;;;;;4833317;29;20053;-80
2023/10/06 05:19:12;;;;;;;13.75;7.20;;;;;;;;;;4835144;29;20053;-82
2023/10/06 05:21:57;;;;;;;10.35;5.57;;;;;;;;;;4831379;29;20046;-85
2023/10/06 05:24:43;;;;;;;9.65;6.00;;;;;;;;;;4817454;29;20057;-83
2023/10/06 05:27:28;;;;;;;9.43;5.68;;;;;;;;;;4833524;29;20050;-82
2023/10/06 05:30:14;;;;;;;15.32;6.35;;;;;;;;;;4826908;29;20049;-81
2023/10/06 05:33:00;;;;;;;16.75;6.80;;;;;;;;;;4832546;29;20547;-82
2023/10/06 05:35:45;;;;;;;22.45;7.38;;;;;;;;;;4817797;29;20123;-82
2023/10/06 05:38:33;;;;;;;22.58;8.38;;;;;;;;;;4827229;29;20474;-81
2023/10/06 05:41:19;;;;;;;18.75;7.95;;;;;;;;;;4828193;29;20046;-82
2023/10/06 05:44:08;;;;;;;15.25;7.50;;;;;;;;;;4833443;29;20406;-80
2023/10/06 05:46:54;;;;;;;21.55;8.15;;;;;;;;;;4830479;29;20058;-80
2023/10/06 05:49:47;;;;;;;17.98;7.13;;;;;;;;;;4829706;29;20049;-81
2023/10/06 05:52:38;;;;;;;14.48;7.47;;;;;;;;;;4836016;29;20061;-83
2023/10/06 05:55:35;;;;;;;17.55;7.70;;;;;;;;;;4830492;29;20429;-84
2023/10/06 05:58:23;;;;;;;17.00;7.20;;;;;;;;;;4831327;29;20046;-82
2023/10/06 06:01:13;;;;;;;19.55;7.43;;;;;;;;;;4813638;29;20450;-82
2023/10/06 06:04:00;;;;;;;22.48;8.93;;;;;;;;;;4816367;29;20049;-80
2023/10/06 06:06:47;;;;;;;22.70;11.30;;;;;;;;;;4830668;29;20414;-81
2023/10/06 06:09:33;;;;;;;24.83;12.10;;;;;;;;;;4817228;29;20514;-83
2023/10/06 06:12:21;;;;;;;20.65;11.15;;;;;;;;;;4811711;29;20057;-83
2023/10/06 06:15:11;;;;;;;24.10;11.70;;;;;;;;;;4831044;29;20474;-82
2023/10/06 06:17:58;;;;;;;29.10;14.35;;;;;;;;;;4832779;29;20049;-81
2023/10/06 06:20:45;;;;;;;25.02;11.55;;;;;;;;;;4830759;29;20045;-83
2023/10/06 06:23:35;;;;;;;30.50;11.95;;;;;;;;;;4816520;29;20406;-82
2023/10/06 06:26:21;;;;;;;24.35;11.15;;;;;;;;;;4831403;29;20482;-84
2023/10/06 06:29:08;;;;;;;26.40;11.77;;;;;;;;;;4816097;29;20417;-82
2023/10/06 06:31:55;;;;;;;27.60;12.35;;;;;;;;;;4829684;29;20482;-83
2023/10/06 06:34:41;;;;;;;25.55;12.48;;;;;;;;;;4824621;29;20402;-84
2023/10/06 06:37:27;;;;;;;28.90;11.63;;;;;;;;;;4832301;29;20404;-83
2023/10/06 06:40:14;;;;;;;28.48;11.05;;;;;;;;;;4817509;29;20053;-84
2023/10/06 06:43:00;;;;;;;20.77;8.70;;;;;;;;;;4817902;29;20054;-82
2023/10/06 06:45:46;;;;;;;24.35;9.90;;;;;;;;;;4816644;29;20405;-84
2023/10/06 06:48:35;;;;;;;16.00;8.25;;;;;;;;;;4823909;29;20545;-83
2023/10/06 06:51:20;;;;;;;21.60;9.15;;;;;;;;;;4823571;29;20054;-83
2023/10/06 06:54:05;;;;;;;18.58;8.95;;;;;;;;;;4829359;29;20648;-82
2023/10/06 06:56:51;;;;;;;26.10;7.47;;;;;;;;;;4829510;29;20417;-83
2023/10/06 06:59:36;;;;;;;17.08;6.05;;;;;;;;;;4810667;29;20046;-83
2023/10/06 07:02:22;;;;;;;15.73;5.75;;;;;;;;;;4830650;29;20050;-82
2023/10/06 07:05:10;;;;;;;13.05;6.30;;;;;;;;;;4823236;29;20521;-81
2023/10/06 07:07:56;;;;;;;15.77;6.68;;;;;;;;;;4824253;29;20049;-85
2023/10/06 07:10:46;;;;;;;18.35;6.82;;;;;;;;;;4815797;29;20070;-83
2023/10/06 07:13:31;;;;;;;17.75;6.65;;;;;;;;;;4816294;29;20049;-83
2023/10/06 07:16:17;;;;;;;18.67;7.07;;;;;;;;;;4823703;29;20042;-82
2023/10/06 07:19:03;;;;;;;12.48;5.75;;;;;;;;;;4833014;29;20057;-82
2023/10/06 07:21:49;;;;;;;19.63;7.18;;;;;;;;;;4832891;29;20054;-83
2023/10/06 07:24:35;;;;;;;13.55;6.65;;;;;;;;;;4827221;29;20519;-84
2023/10/06 07:27:21;;;;;;;13.55;6.55;;;;;;;;;;4824613;29;20481;-81
2023/10/06 07:30:10;;;;;;;36.17;20.70;;;;;;;;;;4830893;29;20054;-84
2023/10/06 07:32:55;;;;;;;22.67;15.68;;;;;;;;;;4803481;29;20409;-80
2023/10/06 07:35:51;;;;;;;18.52;6.93;;;;;;;;;;4815893;29;20477;-84
2023/10/06 07:38:38;;;;;;;16.15;8.00;;;;;;;;;;4829034;29;20409;-84
2023/10/06 07:41:24;;;;;;;12.23;5.85;;;;;;;;;;4829145;29;20058;-84
2023/10/06 07:44:09;;;;;;;17.77;8.48;;;;;;;;;;4829357;29;20050;-85
2023/10/06 07:46:54;;;;;;;15.35;6.53;;;;;;;;;;4829740;29;20418;-84
2023/10/06 07:49:42;;;;;;;20.33;6.88;;;;;;;;;;4828828;29;20450;-79
2023/10/06 07:52:30;;;;;;;16.45;6.40;;;;;;;;;;4815191;29;20398;-83
2023/10/06 07:55:16;;;;;;;16.40;8.27;;;;;;;;;;4815278;29;20501;-82
2023/10/06 07:58:08;;;;;;;14.65;5.93;;;;;;;;;;4807311;29;20467;-81
2023/10/06 08:00:54;;;;;;;15.00;5.97;;;;;;;;;;4823273;29;20049;-83
2023/10/06 08:03:41;;;;;;;10.45;5.93;;;;;;;;;;4796656;29;20042;-84
2023/10/06 08:06:27;;;;;;;13.15;6.10;;;;;;;;;;4802812;29;20054;-84
2023/10/06 08:09:13;;;;;;;19.42;7.25;;;;;;;;;;4814788;29;20057;-83
2023/10/06 08:11:58;;;;;;;14.82;6.43;;;;;;;;;;4815307;29;20049;-83
2023/10/06 08:14:44;;;;;;;16.30;7.05;;;;;;;;;;4829704;29;20045;-84
2023/10/06 08:17:30;;;;;;;16.98;7.05;;;;;;;;;;4829171;29;20501;-85
2023/10/06 08:20:16;;;;;;;15.32;6.00;;;;;;;;;;4801982;29;20410;-84
2023/10/06 08:23:02;;;;;;;13.27;6.30;;;;;;;;;;4815160;29;20438;-84
2023/10/06 08:25:49;;;;;;;22.88;6.80;;;;;;;;;;4815277;29;20394;-83
2023/10/06 08:28:35;;;;;;;17.35;6.72;;;;;;;;;;4802442;29;20053;-86
2023/10/06 08:31:20;;;;;;;14.73;5.97;;;;;;;;;;4814530;29;20049;-85
2023/10/06 08:34:05;;;;;;;9.45;5.22;;;;;;;;;;4828864;29;20052;-82
2023/10/06 08:36:51;;;;;;;12.13;4.55;;;;;;;;;;4824061;29;20049;-86
2023/10/06 08:40:50;;;;;;;10.02;4.63;;;;;;;;;;4815510;29;20056;-85
2023/10/06 08:43:40;;;;;;;12.43;4.32;;;;;;;;;;4726098;30;20480;-86
2023/10/06 08:46:26;;;;;;;10.75;3.78;;;;;;;;;;4732688;30;20047;-84
2023/10/06 08:49:16;;;;;;;4.90;3.13;;;;;;;;;;4808391;29;20041;-85
2023/10/06 08:52:13;;;;;;;8.35;3.78;;;;;;;;;;4808840;29;21795;-83
2023/10/06 08:55:00;;;;;;;6.75;3.45;;;;;;;;;;4807550;29;20049;-82
2023/10/06 08:57:48;;;;;;;12.10;3.40;;;;;;;;;;4815166;29;20034;-81
2023/10/06 09:00:38;;;;;;;6.22;3.30;;;;;;;;;;4815827;29;20414;-85
2023/10/06 09:03:24;;;;;;;8.07;3.92;;;;;;;;;;4814962;29;20053;-84
2023/10/06 09:06:19;;;;;;;10.65;3.58;;;;;;;;;;4814832;29;20057;-88
2023/10/06 09:09:06;;;;;;;7.93;3.70;;;;;;;;;;4813576;29;20398;-83
2023/10/06 09:11:51;;;;;;;8.68;3.85;;;;;;;;;;4814255;29;20054;-81
2023/10/06 09:14:56;;;;;;;12.15;3.42;;;;;;;;;;4803212;29;20049;-82
2023/10/06 09:17:42;;;;;;;7.75;3.22;;;;;;;;;;4811600;29;20042;-81
2023/10/06 09:20:30;;;;;;;10.02;3.20;;;;;;;;;;4816630;29;20407;-83
2023/10/06 09:23:36;;;;;;;7.15;3.00;;;;;;;;;;4817887;29;20401;-83
2023/10/06 09:26:32;;;;;;;7.82;2.80;;;;;;;;;;4828529;29;20045;-85
2023/10/06 09:29:30;;;;;;;8.25;3.13;;;;;;;;;;4812784;29;20493;-82
2023/10/06 09:32:20;;;;;;;6.38;2.80;;;;;;;;;;4818476;29;20049;-86
2023/10/06 09:35:21;;;;;;;12.85;3.10;;;;;;;;;;4818905;29;20413;-83
2023/10/06 09:38:15;;;;;;;9.88;3.13;;;;;;;;;;4817476;29;20038;-83
2023/10/06 09:41:02;;;;;;;12.00;3.33;;;;;;;;;;4813385;29;20053;-84
2023/10/06 09:43:49;;;;;;;8.65;3.42;;;;;;;;;;4805980;29;20050;-86
2023/10/06 09:46:35;;;;;;;11.48;3.90;;;;;;;;;;4800381;29;20286;-84
2023/10/06 09:49:21;;;;;;;9.70;4.20;;;;;;;;;;4818731;29;20057;-85
2023/10/06 09:52:08;;;;;;;7.55;3.97;;;;;;;;;;4826360;29;20053;-83
2023/10/06 09:54:56;;;;;;;8.13;3.67;;;;;;;;;;4812177;29;20057;-83
2023/10/06 09:57:43;;;;;;;11.55;3.75;;;;;;;;;;4826810;29;20734;-82
2023/10/06 10:00:30;;;;;;;10.18;3.65;;;;;;;;;;4826608;29;20397;-83
2023/10/06 10:03:16;;;;;;;5.18;3.30;;;;;;;;;;4818144;29;20053;-85
2023/10/06 10:06:04;;;;;;;8.57;3.22;;;;;;;;;;4818077;29;20041;-86
2023/10/06 10:08:51;;;;;;;6.80;3.05;;;;;;;;;;4817958;29;20046;-85
2023/10/06 10:11:40;;;;;;;7.35;2.92;;;;;;;;;;4825925;29;20049;-84
2023/10/06 10:14:39;;;;;;;6.63;2.90;;;;;;;;;;4812051;29;20057;-83
2023/10/06 10:17:43;;;;;;;9.40;3.17;;;;;;;;;;4811139;29;20049;-88
2023/10/06 10:20:28;;;;;;;8.75;3.42;;;;;;;;;;4825854;29;20124;-85
2023/10/06 10:23:18;;;;;;;7.78;3.05;;;;;;;;;;4817547;29;20045;-85
2023/10/06 10:26:26;;;;;;;9.25;3.28;;;;;;;;;;4817451;29;20490;-86
2023/10/06 10:29:12;;;;;;;9.68;2.88;;;;;;;;;;4817013;29;20053;-83
2023/10/06 10:32:01;;;;;;;8.38;3.00;;;;;;;;;;4804722;29;20402;-84
2023/10/06 10:35:12;;;;;;;5.60;2.50;;;;;;;;;;4804708;29;20046;-84
2023/10/06 10:38:02;;;;;;;12.20;3.20;;;;;;;;;;4811572;29;20065;-83
2023/10/06 10:40:48;;;;;;;12.65;3.60;;;;;;;;;;4818420;29;21819;-84
2023/10/06 10:43:38;;;;;;;6.53;2.50;;;;;;;;;;4811697;29;20486;-89
2023/10/06 10:46:40;;;;;;;12.98;2.72;;;;;;;;;;4811526;29;20037;-81
2023/10/06 10:49:30;;;;;;;9.85;3.28;;;;;;;;;;4817154;29;20046;-82
2023/10/06 10:52:15;;;;;;;4.57;2.22;;;;;;;;;;4811115;29;20642;-84
2023/10/06 10:55:03;;;;;;;4.97;2.10;;;;;;;;;;4804827;29;20473;-85
2023/10/06 10:57:48;;;;;;;7.10;2.25;;;;;;;;;;4798280;29;20489;-86
2023/10/06 11:00:33;;;;;;;5.75;2.83;;;;;;;;;;4812292;29;20447;-80
2023/10/06 11:03:19;;;;;;;6.00;2.90;;;;;;;;;;4825365;29;20394;-86
2023/10/06 11:06:06;;;;;;;7.75;3.30;;;;;;;;;;4824978;29;20045;-84
2023/10/06 11:08:51;;;;;;;9.30;3.72;;;;;;;;;;4817913;29;20048;-82
2023/10/06 11:11:40;;;;;;;9.02;4.00;;;;;;;;;;4818957;29;20045;-83
2023/10/06 11:14:27;;;;;;;8.05;2.67;;;;;;;;;;4823294;29;20418;-80
2023/10/06 11:17:24;;;;;;;7.63;2.60;;;;;;;;;;4823679;29;20049;-83
2023/10/06 11:20:15;;;;;;;7.13;2.88;;;;;;;;;;4815455;29;20410;-82
2023/10/06 11:23:01;;;;;;;6.25;2.80;;;;;;;;;;4814932;29;21243;-87
2023/10/06 11:25:49;;;;;;;6.57;2.38;;;;;;;;;;4812130;29;20053;-83
2023/10/06 11:28:44;;;;;;;12.15;3.10;;;;;;;;;;4816196;29;20089;-84
2023/10/06 11:31:30;;;;;;;10.55;3.03;;;;;;;;;;4798364;29;20038;-83
2023/10/06 11:34:16;;;;;;;16.52;3.45;;;;;;;;;;4824518;29;20443;-83
2023/10/06 11:37:02;;;;;;;8.98;3.58;;;;;;;;;;4816162;29;20459;-84
2023/10/06 11:39:53;;;;;;;7.90;2.80;;;;;;;;;;4816503;29;20057;-84
2023/10/06 11:42:41;;;;;;;8.07;3.10;;;;;;;;;;4816246;29;20053;-81
2023/10/06 11:45:31;;;;;;;10.20;3.00;;;;;;;;;;4816060;29;20417;-84
2023/10/06 11:48:28;;;;;;;15.15;2.75;;;;;;;;;;4816520;29;20394;-84
2023/10/06 11:51:15;;;;;;;7.50;2.70;;;;;;;;;;4804305;29;20041;-86
2023/10/06 11:54:01;;;;;;;8.77;3.22;;;;;;;;;;4809530;29;20053;-84
2023/10/06 11:56:51;;;;;;;17.77;3.13;;;;;;;;;;4815895;29;20474;-83
2023/10/06 11:59:47;;;;;;;14.40;3.30;;;;;;;;;;4810260;29;20469;-82
2023/10/06 12:02:45;;;;;;;6.70;2.75;;;;;;;;;;4810677;29;20037;-84
2023/10/06 12:05:31;;;;;;;10.65;2.70;;;;;;;;;;4809742;29;20042;-84
2023/10/06 12:08:16;;;;;;;7.40;2.67;;;;;;;;;;4816070;29;20394;-83
2023/10/06 12:11:03;;;;;;;9.52;3.03;;;;;;;;;;4816092;29;20494;-83
2023/10/06 12:13:51;;;;;;;8.45;3.00;;;;;;;;;;4810008;29;20409;-85
2023/10/06 12:16:37;;;;;;;14.52;3.50;;;;;;;;;;4816624;29;20041;-85
2023/10/06 12:19:23;;;;;;;17.42;3.38;;;;;;;;;;4796780;29;20062;-82
2023/10/06 12:22:10;;;;;;;8.27;3.42;;;;;;;;;;4803980;29;20049;-89
2023/10/06 12:24:56;;;;;;;8.18;3.00;;;;;;;;;;4805893;29;20057;-87
2023/10/06 12:27:43;;;;;;;8.57;3.65;;;;;;;;;;4816770;29;20053;-81
2023/10/06 12:30:29;;;;;;;14.18;6.30;;;;;;;;;;4803644;29;20045;-84
2023/10/06 12:33:15;;;;;;;13.65;3.50;;;;;;;;;;4823591;29;20054;-83
2023/10/06 12:36:03;;;;;;;11.48;3.47;;;;;;;;;;4815432;29;20467;-86
2023/10/06 12:38:53;;;;;;;10.95;3.50;;;;;;;;;;4815405;29;20045;-84
2023/10/06 12:41:46;;;;;;;8.93;3.60;;;;;;;;;;4810891;29;20054;-85
2023/10/06 12:44:34;;;;;;;8.85;3.63;;;;;;;;;;4815738;29;20413;-81
2023/10/06 12:47:19;;;;;;;8.75;2.90;;;;;;;;;;4823982;29;20038;-84
2023/10/06 12:50:08;;;;;;;11.23;3.67;;;;;;;;;;4807951;29;20054;-83
2023/10/06 12:52:55;;;;;;;11.18;3.13;;;;;;;;;;4803630;29;20058;-87
2023/10/06 12:55:43;;;;;;;8.93;3.28;;;;;;;;;;4823953;29;20406;-82
2023/10/06 12:58:28;;;;;;;5.35;2.75;;;;;;;;;;4819461;29;20067;-86
2023/10/06 13:01:14;;;;;;;12.32;3.60;;;;;;;;;;4812906;29;20451;-82
2023/10/06 13:04:01;;;;;;;6.38;2.67;;;;;;;;;;4820015;29;20489;-84
2023/10/06 13:06:48;;;;;;;8.10;3.20;;;;;;;;;;4819636;29;20482;-87
2023/10/06 13:09:36;;;;;;;12.43;3.13;;;;;;;;;;4820634;29;20161;-85
2023/10/06 13:12:21;;;;;;;6.63;2.90;;;;;;;;;;4816466;29;20498;-84
2023/10/06 13:15:09;;;;;;;8.27;3.28;;;;;;;;;;4829593;29;20045;-83
2023/10/06 13:17:54;;;;;;;6.65;2.70;;;;;;;;;;4820921;29;20045;-83
2023/10/06 13:20:41;;;;;;;10.60;2.60;;;;;;;;;;4815291;29;20050;-84
2023/10/06 13:23:27;;;;;;;6.93;2.67;;;;;;;;;;4824072;29;20401;-83
2023/10/06 13:26:13;;;;;;;5.13;2.50;;;;;;;;;;4796566;29;20045;-84
2023/10/06 13:28:58;;;;;;;5.82;2.70;;;;;;;;;;4806049;29;20387;-86
2023/10/06 13:31:44;;;;;;;7.13;2.35;;;;;;;;;;4794779;29;20050;-85
2023/10/06 13:34:32;;;;;;;9.68;2.50;;;;;;;;;;4794910;29;20451;-85
2023/10/06 13:37:17;;;;;;;10.35;3.70;;;;;;;;;;4801878;29;20054;-83
2023/10/06 13:40:03;;;;;;;8.65;3.15;;;;;;;;;;4800283;29;20402;-83
2023/10/06 13:42:50;;;;;;;11.93;3.65;;;;;;;;;;4788173;29;20459;-85
2023/10/06 13:45:35;;;;;;;7.65;3.15;;;;;;;;;;4788137;29;20516;-83
2023/10/06 13:48:25;;;;;;;10.65;3.70;;;;;;;;;;4787952;29;20046;-87
2023/10/06 13:51:11;;;;;;;6.80;2.80;;;;;;;;;;4794122;29;20471;-85
2023/10/06 13:53:57;;;;;;;8.98;3.05;;;;;;;;;;4800117;29;20402;-85
2023/10/06 13:56:44;;;;;;;8.80;2.83;;;;;;;;;;4799557;29;20045;-83
2023/10/06 13:59:30;;;;;;;8.15;2.70;;;;;;;;;;4799562;29;20406;-83
2023/10/06 14:02:16;;;;;;;7.78;2.83;;;;;;;;;;4794195;29;20057;-85
2023/10/06 14:05:02;;;;;;;5.70;2.40;;;;;;;;;;4807906;29;20049;-84
2023/10/06 14:07:48;;;;;;;7.53;2.35;;;;;;;;;;4799594;29;20116;-85
2023/10/06 14:10:37;;;;;;;6.63;3.20;;;;;;;;;;4793062;29;20050;-82
2023/10/06 14:13:27;;;;;;;7.05;2.70;;;;;;;;;;4799810;29;20374;-84
2023/10/06 14:16:18;;;;;;;9.02;2.90;;;;;;;;;;4787583;29;20495;-84
2023/10/06 14:19:07;;;;;;;8.77;2.70;;;;;;;;;;4800103;29;20058;-83
2023/10/06 14:21:53;;;;;;;15.23;2.97;;;;;;;;;;4806774;29;20046;-82
2023/10/06 14:24:39;;;;;;;5.63;2.45;;;;;;;;;;4801884;29;20057;-83
2023/10/06 14:27:27;;;;;;;6.18;2.72;;;;;;;;;;4821214;29;20466;-83
2023/10/06 14:30:14;;;;;;;11.18;3.15;;;;;;;;;;4810021;29;20041;-83
2023/10/06 14:47:55;;;;;;;11.52;3.40;;;;;;;;;;4785729;29;20436;-80
2023/10/06 14:50:42;;;;;;;10.93;4.10;;;;;;;;;;4783361;29;20051;-84
2023/10/06 14:53:30;;;;;;;13.55;3.13;;;;;;;;;;4815501;29;20046;-81
2023/10/06 14:56:16;;;;;;;9.18;4.57;;;;;;;;;;4834269;29;20049;-82
2023/10/06 14:59:04;;;;;;;8.82;4.00;;;;;;;;;;4830932;29;20049;-82
2023/10/06 15:01:51;;;;;;;8.77;4.22;;;;;;;;;;4828927;29;20041;-83
2023/10/06 15:04:39;;;;;;;9.18;4.28;;;;;;;;;;4821941;29;20053;-84
2023/10/06 15:07:24;;;;;;;18.73;4.65;;;;;;;;;;4838562;29;20053;-80
2023/10/06 15:10:15;;;;;;;7.03;4.20;;;;;;;;;;4824226;29;20042;-81
2023/10/06 15:13:01;;;;;;;16.48;7.93;;;;;;;;;;4831634;29;20046;-81
2023/10/06 15:15:46;;;;;;;15.25;6.40;;;;;;;;;;4836911;29;20053;-81
2023/10/06 15:18:33;;;;;;;11.63;4.70;;;;;;;;;;4830736;29;20046;-79
2023/10/06 15:21:23;;;;;;;12.73;6.32;;;;;;;;;;4829640;29;20405;-79
2023/10/06 15:24:14;;;;;;;14.10;3.95;;;;;;;;;;4815774;29;20446;-83
2023/10/06 15:27:00;;;;;;;8.98;3.70;;;;;;;;;;4836109;29;20049;-83
2023/10/06 15:29:45;;;;;;;20.52;4.03;;;;;;;;;;4810501;29;20471;-82
2023/10/06 15:32:30;;;;;;;11.20;3.63;;;;;;;;;;4829203;29;20034;-80
2023/10/06 15:35:16;;;;;;;13.13;3.60;;;;;;;;;;4802874;29;20045;-82
2023/10/06 15:38:07;;;;;;;11.32;3.97;;;;;;;;;;4834864;29;20405;-82
2023/10/06 15:41:04;;;;;;;13.02;3.92;;;;;;;;;;4828968;29;20462;-81
2023/10/06 15:43:50;;;;;;;16.45;4.18;;;;;;;;;;4829821;29;20462;-82
2023/10/06 15:46:36;;;;;;;19.15;5.50;;;;;;;;;;4836246;29;20058;-82
2023/10/06 15:49:22;;;;;;;13.75;6.53;;;;;;;;;;4815221;29;20061;-81
2023/10/06 15:52:07;;;;;;;14.85;4.97;;;;;;;;;;4833745;29;20053;-80
2023/10/06 15:54:53;;;;;;;10.23;4.22;;;;;;;;;;4836887;29;20398;-83
2023/10/06 15:57:40;;;;;;;10.57;3.60;;;;;;;;;;4836299;29;20422;-82
2023/10/06 16:00:26;;;;;;;12.48;4.60;;;;;;;;;;4835454;29;20045;-82
2023/10/06 16:03:12;;;;;;;12.27;4.50;;;;;;;;;;4820782;29;20413;-81
2023/10/06 16:05:57;;;;;;;18.52;13.07;;;;;;;;;;4834952;29;20045;-80
2023/10/06 16:08:46;;;;;;;13.85;8.93;;;;;;;;;;4834703;29;20065;-84
2023/10/06 16:11:32;;;;;;;28.50;13.88;;;;;;;;;;4829034;29;20390;-81
2023/10/06 16:14:18;;;;;;;33.38;14.70;;;;;;;;;;4814793;29;20049;-83
2023/10/06 16:17:03;;;;;;;31.60;14.57;;;;;;;;;;4816177;29;20049;-81
2023/10/06 16:19:49;;;;;;;36.67;14.75;;;;;;;;;;4834452;29;20474;-79
2023/10/06 16:22:35;;;;;;;27.17;11.35;;;;;;;;;;4835292;29;20494;-80
2023/10/06 16:25:20;;;;;;;26.60;12.80;;;;;;;;;;4828946;29;20405;-82
2023/10/06 16:28:11;;;;;;;51.92;20.30;;;;;;;;;;4828286;29;20478;-80
2023/10/06 16:30:57;;;;;;;51.53;22.98;;;;;;;;;;4835075;29;20414;-82
2023/10/06 16:33:44;;;;;;;54.85;25.58;;;;;;;;;;4828246;29;20057;-82
2023/10/06 16:36:29;;;;;;;56.15;25.05;;;;;;;;;;4828756;29;20398;-81
2023/10/06 16:39:21;;;;;;;45.08;20.55;;;;;;;;;;4834617;29;20041;-81
2023/10/06 16:42:08;;;;;;;97.80;29.25;;;;;;;;;;4834026;29;20363;-80
2023/10/06 16:44:53;;;;;;;78.93;27.08;;;;;;;;;;4828221;29;20041;-83
2023/10/06 16:47:40;;;;;;;69.55;22.75;;;;;;;;;;4828528;29;20494;-82
2023/10/06 16:50:26;;;;;;;43.38;15.80;;;;;;;;;;4828788;29;20049;-85
2023/10/06 16:53:11;;;;;;;33.72;15.02;;;;;;;;;;4835367;29;20465;-80
2023/10/06 16:55:58;;;;;;;35.20;16.38;;;;;;;;;;4828068;29;20418;-81
2023/10/06 16:58:43;;;;;;;56.58;19.67;;;;;;;;;;4835548;29;20405;-82